Time;durP1;ratioP1;P1;durP2;ratioP2;P2;SDS_P1;SDS_P2;PMS_P1;PMS_P2;Temp;Humidity;BMP_temperature;BMP_pressure;BME280_temperature;BME280_humidity;BME280_pressure;Samples;Min_cycle;Max_cycle;Signal;HPM_P1;HPM_P2
2021/06/20 00:01:23;;;;;;;3.38;1.45;;;15.30;71.40;;;;;;4185809;28;20021;-51
2021/06/20 00:03:25;;;;;;;3.05;1.25;;;15.30;71.40;;;;;;4181516;28;20141;-56
2021/06/20 00:05:33;;;;;;;2.60;1.70;;;15.30;71.40;;;;;;4183260;28;20028;-53
2021/06/20 00:07:37;;;;;;;3.28;1.40;;;15.30;71.40;;;;;;4181448;28;20047;-52
2021/06/20 00:09:38;;;;;;;;;;;15.30;71.30;;;;;;4180817;28;20047;-49
2021/06/20 00:11:43;;;;;;;3.78;1.30;;;15.30;71.40;;;;;;4183719;28;19912;-54
2021/06/20 00:13:46;;;;;;;4.50;1.42;;;15.30;71.20;;;;;;4180278;28;20345;-55
2021/06/20 00:15:49;;;;;;;2.55;1.25;;;15.30;70.90;;;;;;4184452;28;20190;-57
2021/06/20 00:17:51;;;;;;;;;;;15.30;70.40;;;;;;4180244;28;20073;-57
2021/06/20 00:19:53;;;;;;;4.13;1.40;;;15.30;70.20;;;;;;4183663;28;19981;-56
2021/06/20 00:21:55;;;;;;;4.07;1.70;;;15.30;70.00;;;;;;4182250;28;20377;-56
2021/06/20 00:23:57;;;;;;;2.55;1.60;;;15.30;69.90;;;;;;4183348;28;20028;-58
2021/06/20 00:25:59;;;;;;;2.13;1.50;;;15.30;69.70;;;;;;4180616;28;20343;-55
2021/06/20 00:28:02;;;;;;;5.10;1.83;;;15.30;69.60;;;;;;4184308;28;20025;-58
2021/06/20 00:30:14;;;;;;;2.40;1.40;;;15.30;69.60;;;;;;4184502;28;20426;-57
2021/06/20 00:32:17;;;;;;;6.13;1.90;;;15.30;69.40;;;;;;4184638;28;20457;-56
2021/06/20 00:34:19;;;;;;;4.80;1.70;;;15.30;69.30;;;;;;4184740;28;20036;-56
2021/06/20 00:36:21;;;;;;;3.72;1.92;;;15.30;69.30;;;;;;4182211;28;20044;-55
2021/06/20 00:38:24;;;;;;;10.85;1.95;;;15.20;69.20;;;;;;4182391;28;20447;-47
2021/06/20 00:40:26;;;;;;;6.75;1.90;;;15.30;69.60;;;;;;4181063;28;20055;-55
2021/06/20 00:42:28;;;;;;;6.32;1.95;;;15.20;69.80;;;;;;4185155;28;20508;-55
2021/06/20 00:44:30;;;;;;;11.98;2.63;;;15.30;69.80;;;;;;4180395;28;20034;-56
2021/06/20 00:46:32;;;;;;;5.50;1.77;;;15.30;69.60;;;;;;4183011;28;20032;-55
2021/06/20 00:48:35;;;;;;;4.53;1.52;;;15.30;69.40;;;;;;4181335;28;20020;-54
2021/06/20 00:50:37;;;;;;;3.08;1.30;;;15.30;69.70;;;;;;4181678;28;20029;-52
2021/06/20 00:52:40;;;;;;;3.10;1.60;;;15.50;69.80;;;;;;4182378;28;20021;-51
2021/06/20 00:54:47;;;;;;;1.30;1.17;;;15.80;69.70;;;;;;4183903;28;20745;-53
2021/06/20 00:56:49;;;;;;;3.95;1.30;;;;;;;;;;4182107;28;20028;-48
2021/06/20 00:59:01;;;;;;;2.10;1.27;;;;;;;;;;4180992;28;20485;-53
2021/06/20 01:01:03;;;;;;;1.63;1.20;;;;;;;;;;4181083;28;20123;-51
2021/06/20 01:03:07;;;;;;;1.90;1.30;;;;;;;;;;4182951;28;20052;-56
2021/06/20 01:05:10;;;;;;;1.83;1.15;;;;;;;;;;4182232;28;20025;-54
2021/06/20 01:07:15;;;;;;;1.90;1.27;;;;;;;;;;4183068;28;20109;-55
2021/06/20 01:09:17;;;;;;;1.83;1.00;;;16.40;68.70;;;;;;4183930;28;20024;-51
2021/06/20 01:11:19;;;;;;;2.40;1.20;;;;;;;;;;4179232;28;20017;-55
2021/06/20 01:13:21;;;;;;;2.90;1.40;;;;;;;;;;4184375;28;20457;-54
2021/06/20 01:15:23;;;;;;;1.77;1.00;;;;;;;;;;4180426;28;20024;-58
2021/06/20 01:17:26;;;;;;;1.23;0.85;;;;;;;;;;4182923;28;20191;-58
2021/06/20 01:19:28;;;;;;;2.33;1.08;;;20.10;58.30;;;;;;4179765;28;20529;-54
2021/06/20 01:21:31;;;;;;;1.33;0.98;;;21.90;53.80;;;;;;4181604;28;20140;-55
2021/06/20 01:23:33;;;;;;;2.42;1.10;;;22.10;52.80;;;;;;4184303;28;20060;-55
2021/06/20 01:25:37;;;;;;;1.90;1.05;;;22.40;52.80;;;;;;4184631;28;20024;-50
2021/06/20 01:27:50;;;;;;;1.40;1.10;;;22.60;52.10;;;;;;4183979;28;20032;-56
2021/06/20 01:29:53;;;;;;;2.75;1.30;;;22.80;52.10;;;;;;4192960;28;20040;-54
2021/06/20 01:31:57;;;;;;;2.42;1.35;;;22.90;51.90;;;;;;4194341;28;20398;-51
2021/06/20 01:34:00;;;;;;;1.50;1.08;;;23.00;51.80;;;;;;4193646;28;20110;-53
2021/06/20 01:36:02;;;;;;;1.25;0.77;;;23.10;51.60;;;;;;4189707;28;20076;-50
2021/06/20 01:38:06;;;;;;;3.05;1.10;;;23.20;51.50;;;;;;4187612;28;20047;-56
2021/06/20 01:40:10;;;;;;;4.45;1.10;;;23.20;51.30;;;;;;4178751;28;20020;-51
2021/06/20 01:42:15;;;;;;;6.68;1.80;;;23.30;52.30;;;;;;4182183;28;20099;-57
2021/06/20 01:44:18;;;;;;;8.13;1.77;;;23.20;52.00;;;;;;4181916;28;20034;-59
2021/06/20 01:46:20;;;;;;;6.85;1.88;;;23.00;53.30;;;;;;4182215;28;20078;-58
2021/06/20 01:48:22;;;;;;;8.30;1.30;;;22.70;54.30;;;;;;4181648;28;20054;-58
2021/06/20 01:50:24;;;;;;;6.82;1.80;;;22.50;55.10;;;;;;4182897;28;20092;-59
2021/06/20 01:52:27;;;;;;;3.85;1.55;;;22.20;55.70;;;;;;4183548;28;20383;-59
2021/06/20 01:54:33;;;;;;;5.32;1.70;;;22.00;56.30;;;;;;4182241;28;20033;-58
2021/06/20 01:56:35;;;;;;;2.67;1.35;;;21.90;56.80;;;;;;4179559;28;20021;-59
2021/06/20 01:58:38;;;;;;;4.57;1.42;;;21.70;57.30;;;;;;4181817;28;20533;-55
2021/06/20 02:00:45;;;;;;;7.85;1.40;;;21.50;57.50;;;;;;4181217;28;20084;-58
2021/06/20 02:02:47;;;;;;;4.20;1.80;;;21.40;57.90;;;;;;4182142;28;20063;-54
2021/06/20 02:04:50;;;;;;;6.70;1.40;;;21.30;58.20;;;;;;4181174;28;20335;-55
2021/06/20 02:06:53;;;;;;;;;;;21.20;58.60;;;;;;4184039;28;20047;-54
2021/06/20 02:08:55;;;;;;;3.53;1.38;;;21.10;58.80;;;;;;4181669;28;20436;-54
2021/06/20 02:10:57;;;;;;;4.95;1.38;;;21.00;58.80;;;;;;4180963;28;20032;-54
2021/06/20 02:12:59;;;;;;;2.47;1.50;;;20.90;59.00;;;;;;4182719;28;20123;-51
2021/06/20 02:15:04;;;;;;;4.05;1.17;;;20.80;59.20;;;;;;4183389;28;20047;-54
2021/06/20 02:17:25;;;;;;;6.93;1.75;;;20.70;59.40;;;;;;4178476;28;20032;-53
2021/06/20 02:19:27;;;;;;;4.22;1.60;;;20.60;59.30;;;;;;4181250;28;20047;-55
2021/06/20 02:21:29;;;;;;;5.00;1.73;;;20.60;59.50;;;;;;4182506;28;20024;-49
2021/06/20 02:23:31;;;;;;;4.03;1.52;;;20.50;59.60;;;;;;4181473;28;20021;-51
2021/06/20 02:25:34;;;;;;;3.42;1.35;;;20.40;59.80;;;;;;4184397;28;20044;-51
2021/06/20 02:27:36;;;;;;;8.43;1.90;;;20.40;59.80;;;;;;4181601;28;20016;-55
2021/06/20 02:29:40;;;;;;;4.03;1.45;;;20.30;60.00;;;;;;4178922;28;20417;-56
2021/06/20 02:31:42;;;;;;;12.05;2.13;;;20.30;60.30;;;;;;4183573;28;20401;-50
2021/06/20 02:33:44;;;;;;;5.07;1.48;;;20.20;60.10;;;;;;4183966;28;20066;-50
2021/06/20 02:35:46;;;;;;;5.43;2.00;;;20.20;60.40;;;;;;4181360;28;20139;-48
2021/06/20 02:37:49;;;;;;;4.50;1.70;;;20.20;60.50;;;;;;4177062;28;20043;-49
2021/06/20 02:39:52;;;;;;;4.43;1.70;;;20.10;60.50;;;;;;4181371;28;20320;-49
2021/06/20 02:41:54;;;;;;;5.43;1.53;;;20.10;60.50;;;;;;4178204;28;20040;-52
2021/06/20 02:43:56;;;;;;;3.80;1.65;;;20.00;60.60;;;;;;4178829;28;20273;-48
2021/06/20 02:45:58;;;;;;;5.40;1.55;;;20.00;60.60;;;;;;4178473;28;20021;-50
2021/06/20 02:48:00;;;;;;;6.35;2.03;;;20.00;60.70;;;;;;4179886;28;20290;-52
2021/06/20 02:50:04;;;;;;;4.22;1.60;;;20.00;60.80;;;;;;4177843;28;20172;-51
2021/06/20 02:52:09;;;;;;;3.97;1.52;;;19.90;60.90;;;;;;4179494;28;20156;-54
2021/06/20 02:54:11;;;;;;;3.83;1.58;;;19.90;60.90;;;;;;4176308;28;20040;-50
2021/06/20 02:56:14;;;;;;;4.85;1.55;;;19.90;61.00;;;;;;4178881;28;20060;-55
2021/06/20 02:58:16;;;;;;;3.28;1.90;;;19.80;60.90;;;;;;4171342;28;20024;-51
2021/06/20 03:00:18;;;;;;;3.70;1.42;;;19.80;61.10;;;;;;4174402;28;20452;-54
2021/06/20 03:02:21;;;;;;;7.63;2.05;;;19.70;61.20;;;;;;4179265;28;20045;-55
2021/06/20 03:04:23;;;;;;;7.60;2.35;;;19.70;61.30;;;;;;4173842;28;20592;-55
2021/06/20 03:06:26;;;;;;;5.47;1.65;;;19.70;61.50;;;;;;4176287;28;20028;-52
2021/06/20 03:08:28;;;;;;;3.50;1.30;;;19.70;61.60;;;;;;4182892;28;20541;-54
2021/06/20 03:10:30;;;;;;;3.63;1.63;;;19.70;61.60;;;;;;4184969;28;20137;-58
2021/06/20 03:12:32;;;;;;;5.63;1.92;;;19.60;61.60;;;;;;4179898;28;20024;-53
2021/06/20 03:14:36;;;;;;;12.98;2.65;;;19.60;61.80;;;;;;4185324;28;20300;-58
2021/06/20 03:16:37;;;;;;;;;;;19.60;62.00;;;;;;4184839;28;20940;-57
2021/06/20 03:18:40;;;;;;;12.07;2.40;;;19.60;62.40;;;;;;4180641;28;20027;-58
2021/06/20 03:20:43;;;;;;;5.63;2.30;;;19.60;61.30;;;;;;4180832;28;20060;-57
2021/06/20 03:22:45;;;;;;;8.80;2.17;;;19.60;60.20;;;;;;4175360;28;20039;-58
2021/06/20 03:24:50;;;;;;;7.20;2.03;;;19.60;60.20;;;;;;4177592;28;20078;-58
2021/06/20 03:26:52;;;;;;;7.68;2.10;;;19.50;60.20;;;;;;4179771;28;20028;-57
2021/06/20 03:28:58;;;;;;;7.10;2.45;;;19.40;60.30;;;;;;4177026;28;20438;-58
2021/06/20 03:31:00;;;;;;;7.45;2.83;;;19.30;60.30;;;;;;4177554;28;20333;-57
2021/06/20 03:33:02;;;;;;;5.60;2.40;;;;;;;;;;4180612;28;20241;-56
2021/06/20 03:35:05;;;;;;;8.13;2.83;;;19.30;60.70;;;;;;4174273;28;20083;-58
2021/06/20 03:37:07;;;;;;;8.48;2.50;;;19.20;61.30;;;;;;4178330;28;20032;-56
2021/06/20 03:39:10;;;;;;;5.93;2.25;;;19.10;61.70;;;;;;4176381;28;20151;-57
2021/06/20 03:41:12;;;;;;;6.45;2.47;;;19.10;61.90;;;;;;4181343;28;20346;-56
2021/06/20 03:43:16;;;;;;;6.70;2.75;;;19.00;62.00;;;;;;4180272;28;20079;-58
2021/06/20 03:45:17;;;;;;;;;;;19.00;61.30;;;;;;4178268;28;22951;-59
2021/06/20 03:47:19;;;;;;;9.23;2.70;;;18.90;62.60;;;;;;4176909;28;19999;-59
2021/06/20 03:49:21;;;;;;;7.63;2.60;;;18.90;63.00;;;;;;4176605;28;20060;-59
2021/06/20 03:51:23;;;;;;;7.68;2.80;;;18.90;63.10;;;;;;4178134;28;20402;-59
2021/06/20 03:53:26;;;;;;;7.72;2.58;;;18.90;63.00;;;;;;4174737;28;20032;-58
2021/06/20 03:55:28;;;;;;;7.95;2.65;;;18.90;63.20;;;;;;4175069;28;20048;-60
2021/06/20 03:57:30;;;;;;;4.95;2.30;;;;;;;;;;4175109;28;20095;-59
2021/06/20 03:59:32;;;;;;;5.97;2.42;;;;;;;;;;4174147;28;20067;-59
2021/06/20 04:01:34;;;;;;;5.55;2.35;;;;;;;;;;4171696;28;20044;-59
2021/06/20 04:03:36;;;;;;;5.10;2.63;;;;;;;;;;4177334;28;20027;-58
2021/06/20 04:05:38;;;;;;;5.35;2.00;;;18.90;63.30;;;;;;4172029;28;20031;-59
2021/06/20 04:07:40;;;;;;;5.00;1.95;;;18.70;63.50;;;;;;4176308;28;20440;-59
2021/06/20 04:09:43;;;;;;;3.80;1.92;;;;;;;;;;4175647;28;20032;-59
2021/06/20 04:11:47;;;;;;;4.60;1.88;;;18.70;63.60;;;;;;4177990;28;20028;-55
2021/06/20 04:13:50;;;;;;;5.22;2.00;;;18.50;64.00;;;;;;4176118;28;20955;-57
2021/06/20 04:15:52;;;;;;;3.40;1.70;;;18.50;64.10;;;;;;4171358;28;20043;-52
2021/06/20 04:17:55;;;;;;;6.22;1.92;;;18.50;64.40;;;;;;4176863;28;20135;-58
2021/06/20 04:19:57;;;;;;;4.80;2.07;;;18.50;64.50;;;;;;4174959;28;20364;-57
2021/06/20 04:21:59;;;;;;;3.13;1.73;;;18.50;64.80;;;;;;4178561;28;20074;-58
2021/06/20 04:24:01;;;;;;;6.97;2.35;;;18.40;64.80;;;;;;4175117;28;20147;-55
2021/06/20 04:26:03;;;;;;;5.43;2.20;;;18.40;64.60;;;;;;4174124;28;20025;-57
2021/06/20 04:28:06;;;;;;;4.03;1.77;;;18.40;65.30;;;;;;4175402;28;20031;-50
2021/06/20 04:30:13;;;;;;;3.20;1.85;;;18.30;66.20;;;;;;4177081;28;20387;-56
2021/06/20 04:32:15;;;;;;;3.90;1.50;;;18.30;66.20;;;;;;4173210;28;20484;-54
2021/06/20 04:34:17;;;;;;;4.15;1.60;;;18.70;65.50;;;;;;4179231;28;20103;-55
2021/06/20 04:36:19;;;;;;;6.25;1.80;;;;;;;;;;4172498;28;20061;-54
2021/06/20 04:38:22;;;;;;;4.03;1.67;;;19.10;64.50;;;;;;4172486;28;20513;-53
2021/06/20 04:40:25;;;;;;;3.53;1.70;;;;;;;;;;4173214;28;20519;-53
2021/06/20 04:42:33;;;;;;;4.05;1.50;;;;;;;;;;4174774;28;20041;-53
2021/06/20 04:44:47;;;;;;;4.10;1.63;;;;;;;;;;4175938;28;20758;-55
2021/06/20 04:46:49;;;;;;;5.35;1.38;;;;;;;;;;4172207;28;20044;-54
2021/06/20 04:48:54;;;;;;;4.10;1.42;;;20.00;62.50;;;;;;4177419;28;20706;-47
2021/06/20 04:50:56;;;;;;;4.45;2.25;;;22.40;57.60;;;;;;4174723;28;20179;-53
2021/06/20 04:52:58;;;;;;;4.53;1.70;;;22.70;57.20;;;;;;4174144;28;20084;-57
2021/06/20 04:55:00;;;;;;;3.65;1.63;;;23.00;56.60;;;;;;4173026;28;20028;-56
2021/06/20 04:57:03;;;;;;;3.80;1.40;;;23.40;55.90;;;;;;4176509;28;20294;-50
2021/06/20 04:59:06;;;;;;;;;;;23.60;55.50;;;;;;4174088;28;20218;-56
2021/06/20 05:01:08;;;;;;;2.63;1.42;;;23.90;55.30;;;;;;4173198;28;19943;-54
2021/06/20 05:03:10;;;;;;;2.60;1.37;;;24.10;54.70;;;;;;4173491;28;20139;-56
2021/06/20 05:05:18;;;;;;;6.40;1.65;;;24.40;54.50;;;;;;4166404;28;20154;-58
2021/06/20 05:07:21;;;;;;;4.35;1.58;;;24.60;54.20;;;;;;4170035;28;20031;-53
2021/06/20 05:09:23;;;;;;;2.90;1.48;;;24.80;53.90;;;;;;4166503;28;20033;-55
2021/06/20 05:11:25;;;;;;;3.22;1.48;;;25.00;53.60;;;;;;4169364;28;20517;-58
2021/06/20 05:13:27;;;;;;;3.17;1.48;;;25.20;53.30;;;;;;4167329;28;20089;-56
2021/06/20 05:15:30;;;;;;;3.03;1.30;;;25.40;53.20;;;;;;4167640;28;20168;-50
2021/06/20 05:17:32;;;;;;;2.90;1.40;;;25.60;52.90;;;;;;4173519;28;20346;-51
2021/06/20 05:19:35;;;;;;;2.72;1.13;;;25.70;52.60;;;;;;4173862;28;20288;-49
2021/06/20 05:21:37;;;;;;;3.70;1.60;;;25.50;52.60;;;;;;4173411;28;20444;-51
2021/06/20 05:23:39;;;;;;;4.03;1.48;;;25.20;53.00;;;;;;4175249;28;20427;-60
2021/06/20 05:25:41;;;;;;;6.32;1.85;;;24.90;53.10;;;;;;4170052;28;20027;-57
2021/06/20 05:27:43;;;;;;;4.05;1.70;;;24.50;52.80;;;;;;4175945;28;20055;-55
2021/06/20 05:29:45;;;;;;;4.30;1.98;;;24.20;53.30;;;;;;4175053;28;20691;-51
2021/06/20 05:31:48;;;;;;;6.55;2.22;;;23.80;53.50;;;;;;4173824;28;20334;-50
2021/06/20 05:33:50;;;;;;;6.97;1.50;;;23.60;54.50;;;;;;4172790;28;20032;-56
2021/06/20 05:35:55;;;;;;;4.93;1.67;;;23.30;55.30;;;;;;4172441;28;20071;-52
2021/06/20 05:37:57;;;;;;;3.80;1.73;;;23.20;55.70;;;;;;4176157;28;20032;-54
2021/06/20 05:39:59;;;;;;;5.63;2.00;;;23.00;56.30;;;;;;4176460;28;20456;-57
2021/06/20 05:42:02;;;;;;;4.20;1.90;;;22.80;56.80;;;;;;4190630;28;20081;-56
2021/06/20 05:47:02;;;;;;;4.18;1.85;;;22.60;57.40;;;;;;4170911;28;20063;-58
2021/06/20 05:49:03;;;;;;;;;;;22.40;57.60;;;;;;4186435;28;20029;-55
2021/06/20 05:51:08;;;;;;;4.18;1.83;;;22.40;57.90;;;;;;4175968;28;19919;-55
2021/06/20 05:53:10;;;;;;;3.55;1.75;;;22.30;58.20;;;;;;4175610;28;20051;-56
2021/06/20 05:55:12;;;;;;;6.25;1.83;;;22.20;58.10;;;;;;4176177;28;20055;-55
2021/06/20 05:57:14;;;;;;;4.13;2.30;;;22.10;58.20;;;;;;4175689;28;20399;-57
2021/06/20 05:59:16;;;;;;;4.45;2.15;;;22.00;58.30;;;;;;4173935;28;20025;-57
2021/06/20 06:01:21;;;;;;;6.30;2.40;;;22.00;58.40;;;;;;4175570;28;20456;-56
2021/06/20 06:03:23;;;;;;;6.63;2.50;;;21.90;58.40;;;;;;4174617;28;20555;-55
2021/06/20 06:05:26;;;;;;;5.05;2.20;;;21.80;58.60;;;;;;4176762;28;20519;-57
2021/06/20 06:07:29;;;;;;;5.97;2.42;;;21.70;58.80;;;;;;4176047;28;20024;-56
2021/06/20 06:09:32;;;;;;;11.23;2.90;;;21.70;59.60;;;;;;4179800;28;20035;-53
2021/06/20 06:11:34;;;;;;;7.43;2.50;;;21.60;58.90;;;;;;4175277;28;20371;-51
2021/06/20 06:13:40;;;;;;;4.63;2.40;;;21.50;59.00;;;;;;4174629;28;20024;-55
2021/06/20 06:15:42;;;;;;;6.55;2.67;;;21.50;59.10;;;;;;4176762;28;20529;-56
2021/06/20 06:17:45;;;;;;;5.22;2.97;;;;;;;;;;4176983;28;20025;-52
2021/06/20 06:19:47;;;;;;;4.45;2.83;;;;;;;;;;4177515;28;20033;-55
2021/06/20 06:21:49;;;;;;;5.82;2.67;;;;;;;;;;4173697;28;20025;-58
2021/06/20 06:23:51;;;;;;;5.78;3.13;;;;;;;;;;4173156;28;20357;-57
2021/06/20 06:25:53;;;;;;;6.40;3.00;;;;;;;;;;4173758;28;20095;-56
2021/06/20 06:27:55;;;;;;;5.35;3.30;;;;;;;;;;4176075;28;20668;-51
2021/06/20 06:29:57;;;;;;;6.85;3.17;;;;;;;;;;4174048;28;20029;-57
2021/06/20 06:31:59;;;;;;;6.68;3.28;;;;;;;;;;4176255;28;20043;-58
2021/06/20 06:34:01;;;;;;;9.02;4.18;;;;;;;;;;4174899;28;20486;-59
2021/06/20 06:36:03;;;;;;;10.02;4.30;;;;;;;;;;4174873;28;20040;-61
2021/06/20 06:38:05;;;;;;;6.65;4.25;;;;;;;;;;4174897;28;20024;-58
2021/06/20 06:40:09;;;;;;;18.27;4.85;;;;;;;;;;4173899;28;20032;-60
2021/06/20 06:42:11;;;;;;;;;;;21.40;59.10;;;;;;4174743;28;20759;-56
2021/06/20 06:44:14;;;;;;;11.70;4.93;;;22.40;58.40;;;;;;4173228;28;20365;-59
2021/06/20 06:46:19;;;;;;;14.20;4.90;;;22.80;57.00;;;;;;4175903;28;20027;-57
2021/06/20 06:48:21;;;;;;;10.52;5.60;;;23.20;56.60;;;;;;4176640;28;20083;-59
2021/06/20 06:50:26;;;;;;;10.82;5.90;;;23.50;55.50;;;;;;4175638;28;20291;-58
2021/06/20 06:52:32;;;;;;;11.07;5.35;;;23.70;55.10;;;;;;4179304;28;20516;-59
2021/06/20 06:54:35;;;;;;;9.32;5.13;;;24.00;54.90;;;;;;4175974;28;20039;-59
2021/06/20 06:56:38;;;;;;;10.05;5.65;;;24.20;54.30;;;;;;4175472;28;20477;-59
2021/06/20 06:58:48;;;;;;;6.73;5.70;;;24.50;53.60;;;;;;4176129;28;20641;-60
2021/06/20 07:00:54;;;;;;;8.98;5.18;;;24.70;53.20;;;;;;4171172;28;20522;-59
2021/06/20 07:02:57;;;;;;;9.45;5.78;;;24.90;52.70;;;;;;4172216;28;20063;-59
2021/06/20 07:05:00;;;;;;;7.75;5.70;;;25.10;52.50;;;;;;4170666;28;20036;-59
2021/06/20 07:07:02;;;;;;;9.27;5.68;;;25.40;52.20;;;;;;4176107;28;20562;-60
2021/06/20 07:09:05;;;;;;;10.60;5.90;;;25.60;51.70;;;;;;4171205;28;20028;-59
2021/06/20 07:11:07;;;;;;;7.88;5.88;;;25.80;51.30;;;;;;4173717;28;20055;-57
2021/06/20 07:13:09;;;;;;;9.50;5.68;;;26.00;51.30;;;;;;4173137;28;20327;-55
2021/06/20 07:15:12;;;;;;;7.13;5.65;;;25.80;51.10;;;;;;4177110;28;20052;-58
2021/06/20 07:17:14;;;;;;;7.97;5.65;;;25.60;51.40;;;;;;4177998;28;20028;-58
2021/06/20 07:19:17;;;;;;;6.88;5.43;;;25.60;51.60;;;;;;4178259;28;20036;-58
2021/06/20 07:21:19;;;;;;;6.97;5.57;;;25.80;51.30;;;;;;4174051;28;20036;-58
2021/06/20 07:23:22;;;;;;;7.97;5.75;;;26.00;51.10;;;;;;4179627;28;20033;-58
2021/06/20 07:25:24;;;;;;;10.30;7.28;;;26.20;50.60;;;;;;4180093;28;20151;-57
2021/06/20 07:27:26;;;;;;;9.27;6.70;;;26.50;50.40;;;;;;4184020;28;20457;-55
2021/06/20 07:29:28;;;;;;;11.60;9.43;;;26.50;50.10;;;;;;4181172;28;20313;-54
2021/06/20 07:31:30;;;;;;;13.77;11.93;;;26.20;50.10;;;;;;4186173;28;20445;-57
2021/06/20 07:33:32;;;;;;;17.27;14.30;;;26.00;50.30;;;;;;4184944;28;20031;-57
2021/06/20 07:35:35;;;;;;;18.27;15.45;;;25.70;50.50;;;;;;4181348;28;20366;-57
2021/06/20 07:37:38;;;;;;;27.20;22.95;;;25.40;50.70;;;;;;4185060;28;20474;-58
2021/06/20 07:39:40;;;;;;;45.92;40.00;;;25.10;50.70;;;;;;4183991;28;20408;-60
2021/06/20 07:41:43;;;;;;;43.20;38.22;;;24.80;50.30;;;;;;4185540;28;20035;-57
2021/06/20 07:43:44;;;;;;;;;;;24.60;50.90;;;;;;4182468;28;20029;-58
2021/06/20 07:45:46;;;;;;;40.47;34.28;;;24.40;51.60;;;;;;4181578;28;19999;-58
2021/06/20 07:47:52;;;;;;;39.40;33.78;;;24.20;52.00;;;;;;4182275;28;20021;-56
2021/06/20 07:49:54;;;;;;;41.88;37.42;;;24.00;52.30;;;;;;4185784;28;20064;-57
2021/06/20 07:51:56;;;;;;;44.13;35.78;;;23.90;52.60;;;;;;4178396;28;20501;-56
2021/06/20 07:53:58;;;;;;;51.90;39.10;;;23.80;52.90;;;;;;4184323;28;20104;-57
2021/06/20 07:56:00;;;;;;;48.80;38.80;;;23.60;52.90;;;;;;4173143;28;20103;-57
2021/06/20 07:58:02;;;;;;;47.28;39.88;;;23.50;53.10;;;;;;4180400;28;20040;-56
2021/06/20 08:00:08;;;;;;;46.65;39.80;;;23.40;53.20;;;;;;4176982;28;20024;-58
2021/06/20 08:02:11;;;;;;;44.53;38.33;;;23.30;53.40;;;;;;4175036;28;20149;-58
2021/06/20 08:04:13;;;;;;;45.60;39.35;;;23.20;53.50;;;;;;4177139;28;20036;-56
2021/06/20 08:06:15;;;;;;;42.05;37.47;;;23.10;53.60;;;;;;4174110;28;20032;-57
2021/06/20 08:08:19;;;;;;;42.33;37.17;;;23.00;53.80;;;;;;4178317;28;20092;-57
2021/06/20 08:10:21;;;;;;;47.65;39.35;;;22.90;53.90;;;;;;4178893;28;20028;-57
2021/06/20 08:12:24;;;;;;;44.92;38.63;;;22.80;54.10;;;;;;4176267;28;20548;-55
2021/06/20 08:14:27;;;;;;;44.95;39.03;;;22.70;54.20;;;;;;4175388;28;20521;-56
2021/06/20 08:16:30;;;;;;;43.35;38.00;;;22.60;54.40;;;;;;4178345;28;20454;-56
2021/06/20 08:18:32;;;;;;;42.05;37.03;;;22.50;54.50;;;;;;4177428;28;20024;-57
2021/06/20 08:20:34;;;;;;;40.47;35.67;;;22.40;54.70;;;;;;4175221;28;20083;-55
2021/06/20 08:22:37;;;;;;;40.60;35.75;;;22.40;54.80;;;;;;4175004;28;20063;-57
2021/06/20 08:24:39;;;;;;;39.63;34.25;;;22.30;54.90;;;;;;4179627;28;20028;-56
2021/06/20 08:26:42;;;;;;;38.15;32.58;;;22.20;55.10;;;;;;4179007;28;20036;-57
2021/06/20 08:28:44;;;;;;;37.60;33.00;;;22.10;55.20;;;;;;4175257;28;20051;-57
2021/06/20 08:30:46;;;;;;;37.28;31.30;;;22.00;55.40;;;;;;4176526;28;20331;-57
2021/06/20 08:32:49;;;;;;;33.47;29.75;;;22.00;55.50;;;;;;4177890;28;20035;-55
2021/06/20 08:34:52;;;;;;;;;;;21.90;55.60;;;;;;4177551;28;20532;-59
2021/06/20 08:36:54;;;;;;;30.50;26.58;;;21.80;55.80;;;;;;4177146;28;19912;-57
2021/06/20 08:38:59;;;;;;;31.88;26.63;;;21.80;55.90;;;;;;4178449;28;20020;-57
2021/06/20 08:41:03;;;;;;;30.70;26.17;;;21.70;56.00;;;;;;4178622;28;20032;-57
2021/06/20 08:43:05;;;;;;;30.52;26.58;;;21.60;56.10;;;;;;4176023;28;20028;-56
2021/06/20 08:45:08;;;;;;;28.17;24.70;;;21.60;56.20;;;;;;4178107;28;20060;-58
2021/06/20 08:47:12;;;;;;;28.40;24.02;;;21.50;56.40;;;;;;4177969;28;20112;-57
2021/06/20 08:49:15;;;;;;;27.25;24.35;;;21.40;56.40;;;;;;4184004;28;20280;-57
2021/06/20 08:51:17;;;;;;;26.87;23.43;;;21.40;56.60;;;;;;4180557;28;20467;-56
2021/06/20 08:53:21;;;;;;;26.02;23.30;;;21.30;56.60;;;;;;4182356;28;20032;-55
2021/06/20 08:55:24;;;;;;;27.45;21.90;;;21.30;56.70;;;;;;4179280;28;20323;-52
2021/06/20 08:57:35;;;;;;;26.42;22.10;;;21.20;56.60;;;;;;4184097;28;20048;-54
2021/06/20 08:59:38;;;;;;;25.02;22.33;;;21.20;56.70;;;;;;4180637;28;20035;-58
2021/06/20 09:01:41;;;;;;;23.73;20.83;;;21.10;57.00;;;;;;4182940;28;20071;-56
2021/06/20 09:03:45;;;;;;;21.23;15.93;;;21.10;57.10;;;;;;4181841;28;20126;-59
2021/06/20 09:06:09;;;;;;;13.88;11.45;;;21.00;57.20;;;;;;4180678;28;20036;-56
2021/06/20 09:08:15;;;;;;;21.55;12.60;;;;;;;;;;4177640;28;20521;-54
2021/06/20 09:10:25;;;;;;;16.45;13.35;;;;;;;;;;4180288;28;20032;-56
2021/06/20 09:12:27;;;;;;;19.35;14.45;;;21.00;57.50;;;;;;4177789;28;20452;-58
2021/06/20 09:14:29;;;;;;;16.30;13.60;;;20.80;57.90;;;;;;4178134;28;20097;-54
2021/06/20 09:16:32;;;;;;;17.55;13.55;;;20.80;58.00;;;;;;4179451;28;20067;-57
2021/06/20 09:18:35;;;;;;;17.63;13.50;;;20.80;58.20;;;;;;4177382;28;20078;-55
2021/06/20 09:20:44;;;;;;;17.00;13.25;;;;;;;;;;4177139;28;20033;-51
2021/06/20 09:22:56;;;;;;;15.23;13.38;;;;;;;;;;4179419;28;20113;-56
2021/06/20 09:25:02;;;;;;;17.33;12.30;;;;;;;;;;4181708;28;20191;-58
2021/06/20 09:27:04;;;;;;;13.40;11.05;;;;;;;;;;4180262;28;20365;-60
2021/06/20 09:29:07;;;;;;;19.65;13.32;;;;;;;;;;4184095;28;20032;-59
2021/06/20 09:31:09;;;;;;;15.27;12.32;;;;;;;;;;4184517;28;20186;-59
2021/06/20 09:33:11;;;;;;;15.07;12.18;;;;;;;;;;4182457;28;20043;-56
2021/06/20 09:35:13;;;;;;;14.15;12.02;;;;;;;;;;4182434;28;20186;-57
2021/06/20 09:37:17;;;;;;;13.88;11.55;;;;;;;;;;4181188;28;20358;-52
2021/06/20 09:39:20;;;;;;;14.52;12.27;;;;;;;;;;4179436;28;20507;-51
2021/06/20 09:41:22;;;;;;;13.27;10.77;;;;;;;;;;4177025;28;20028;-54
2021/06/20 09:43:24;;;;;;;14.48;11.40;;;;;;;;;;4179035;28;20048;-55
2021/06/20 09:45:27;;;;;;;13.73;10.93;;;;;;;;;;4177361;28;20102;-52
2021/06/20 09:47:29;;;;;;;15.15;11.63;;;;;;;;;;4178322;28;20413;-51
2021/06/20 09:49:31;;;;;;;13.50;10.75;;;;;;;;;;4179910;28;20032;-52
2021/06/20 09:51:34;;;;;;;14.90;10.65;;;;;;;;;;4176950;28;20358;-53
2021/06/20 09:53:40;;;;;;;14.48;10.45;;;;;;;;;;4179456;28;20043;-51
2021/06/20 09:55:42;;;;;;;12.30;10.23;;;;;;;;;;4177765;28;20153;-54
2021/06/20 09:57:46;;;;;;;12.95;10.80;;;;;;;;;;4173799;28;20035;-54
2021/06/20 09:59:56;;;;;;;11.65;9.57;;;;;;;;;;4177398;28;20072;-51
2021/06/20 10:02:09;;;;;;;15.32;10.55;;;;;;;;;;4176666;28;20045;-51
2021/06/20 10:04:11;;;;;;;13.13;10.00;;;;;;;;;;4176334;28;20060;-50
2021/06/20 10:06:14;;;;;;;13.20;9.48;;;;;;;;;;4179280;28;20131;-51
2021/06/20 10:08:16;;;;;;;11.98;9.38;;;;;;;;;;4177229;28;20225;-52
2021/06/20 10:10:18;;;;;;;13.48;9.23;;;;;;;;;;4177315;28;20037;-58
2021/06/20 10:12:22;;;;;;;10.90;9.07;;;;;;;;;;4175523;28;20102;-56
2021/06/20 10:14:24;;;;;;;15.70;9.85;;;;;;;;;;4171146;28;20025;-52
2021/06/20 10:16:26;;;;;;;13.48;9.05;;;;;;;;;;4174955;28;20021;-54
2021/06/20 10:18:28;;;;;;;11.77;8.55;;;;;;;;;;4177378;28;20024;-47
2021/06/20 10:20:34;;;;;;;10.30;9.05;;;;;;;;;;4177330;28;20024;-54
2021/06/20 10:22:36;;;;;;;10.75;8.98;;;;;;;;;;4176396;28;20040;-54
2021/06/20 10:24:49;;;;;;;10.95;8.30;;;;;;;;;;4177248;28;20028;-57
2021/06/20 10:27:01;;;;;;;12.55;8.68;;;;;;;;;;4175405;28;20037;-54
2021/06/20 10:29:15;;;;;;;11.00;8.57;;;;;;;;;;4176048;28;20262;-60
2021/06/20 10:31:17;;;;;;;9.95;8.35;;;;;;;;;;4173237;28;20111;-58
2021/06/20 10:33:23;;;;;;;13.02;8.75;;;;;;;;;;4180065;28;20542;-50
2021/06/20 10:35:25;;;;;;;37.40;9.32;;;;;;;;;;4178431;28;20071;-59
2021/06/20 10:37:32;;;;;;;13.52;7.43;;;;;;;;;;4178587;28;20028;-52
2021/06/20 10:39:35;;;;;;;17.80;8.65;;;;;;;;;;4180209;28;20028;-50
2021/06/20 10:41:37;;;;;;;13.15;7.82;;;;;;;;;;4179302;28;20095;-51
2021/06/20 10:43:39;;;;;;;12.32;7.70;;;;;;;;;;4179611;28;20127;-49
2021/06/20 10:45:42;;;;;;;12.45;8.05;;;;;;;;;;4181849;28;20068;-51
2021/06/20 10:47:44;;;;;;;12.63;7.32;;;;;;;;;;4182305;28;20029;-52
2021/06/20 10:49:54;;;;;;;14.32;7.75;;;;;;;;;;4180013;28;20024;-56
2021/06/20 10:51:56;;;;;;;15.10;7.13;;;;;;;;;;4179129;28;20084;-56
2021/06/20 10:53:58;;;;;;;11.68;7.53;;;;;;;;;;4179915;28;20044;-55
2021/06/20 10:56:00;;;;;;;11.30;7.63;;;;;;;;;;4181654;28;20024;-55
2021/06/20 10:58:02;;;;;;;12.65;7.32;;;;;;;;;;4178880;28;20569;-54
2021/06/20 11:00:05;;;;;;;11.40;7.13;;;;;;;;;;4182407;28;20032;-54
2021/06/20 11:02:20;;;;;;;9.60;6.65;;;;;;;;;;4177708;28;20485;-55
2021/06/20 11:04:23;;;;;;;12.20;6.88;;;;;;;;;;4180062;28;20024;-55
2021/06/20 11:06:25;;;;;;;9.70;6.63;;;;;;;;;;4181266;28;20129;-53